createdAt,value
2024-04-14T00:00:47.963Z,13.5
2024-04-14T00:02:48.571Z,8.9
2024-04-14T00:04:49.273Z,11.5
2024-04-14T00:06:49.931Z,14.6
2024-04-14T00:08:50.381Z,18.7
2024-04-14T00:10:51.020Z,18.3
2024-04-14T00:12:51.638Z,14.7
2024-04-14T00:14:52.247Z,18.8
2024-04-14T00:16:52.810Z,13.2
2024-04-14T00:18:53.610Z,16.7
2024-04-14T00:20:54.031Z,18
2024-04-14T00:22:54.595Z,13.6
2024-04-14T00:24:55.222Z,19.9
2024-04-14T00:26:55.812Z,15.4
2024-04-14T00:28:56.331Z,16.7
2024-04-14T00:30:57.042Z,16.3
2024-04-14T00:32:57.599Z,19.9
2024-04-14T00:34:58.109Z,12.8
2024-04-14T00:36:58.752Z,12.8
2024-04-14T00:38:59.277Z,12.3
2024-04-14T00:40:59.800Z,15.1
2024-04-14T00:43:00.488Z,14.6
2024-04-14T00:45:01.072Z,14.1
2024-04-14T00:47:01.619Z,12.1
2024-04-14T00:49:02.273Z,10.9
2024-04-14T00:51:02.792Z,16.1
2024-04-14T00:53:03.348Z,33.8
2024-04-14T00:55:03.966Z,44.1
2024-04-14T00:57:04.481Z,32.2
2024-04-14T00:59:05.055Z,28.9
2024-04-14T01:01:05.741Z,17.9
2024-04-14T01:03:06.261Z,14.4
2024-04-14T01:05:06.910Z,13.5
2024-04-14T01:07:07.399Z,12
2024-04-14T01:09:07.953Z,12.4
2024-04-14T01:11:08.538Z,14.3
2024-04-14T01:13:09.163Z,10.3
2024-04-14T01:15:09.683Z,11.1
2024-04-14T01:17:10.344Z,14.1
2024-04-14T01:19:10.872Z,10.9
2024-04-14T01:21:11.432Z,11.9
2024-04-14T01:23:12.010Z,10.7
2024-04-14T01:25:12.613Z,11.6
2024-04-14T01:27:15.623Z,11.6
2024-04-14T01:29:13.776Z,10.9
2024-04-14T01:31:14.382Z,11.4
2024-04-14T01:33:14.973Z,9.7
2024-04-14T01:35:15.537Z,11.9
2024-04-14T01:37:16.096Z,12
2024-04-14T01:39:16.677Z,11.3
2024-04-14T01:41:17.317Z,14.2
2024-04-14T01:43:17.970Z,15.8
2024-04-14T01:45:18.474Z,11.2
2024-04-14T01:47:19.114Z,10.4
2024-04-14T01:49:19.650Z,13.3
2024-04-14T01:51:20.274Z,8
2024-04-14T01:53:20.800Z,11
2024-04-14T01:55:21.450Z,11
2024-04-14T01:57:21.965Z,9.6
2024-04-14T01:59:22.584Z,9.1
2024-04-14T02:01:23.292Z,9.7
2024-04-14T02:03:23.874Z,10.1
2024-04-14T02:05:24.352Z,10.9
2024-04-14T02:07:24.877Z,11.4
2024-04-14T02:09:25.504Z,8.2
2024-04-14T02:11:26.096Z,9.1
2024-04-14T02:13:26.592Z,7.5
2024-04-14T02:15:27.182Z,12.9
2024-04-14T02:17:27.966Z,10.1
2024-04-14T02:19:28.323Z,8.6
2024-04-14T02:21:28.944Z,13.2
2024-04-14T02:23:29.501Z,8.9
2024-04-14T02:25:30.101Z,9.7
2024-04-14T02:27:30.781Z,10.2
2024-04-14T02:29:31.291Z,8
2024-04-14T02:31:31.886Z,9
2024-04-14T02:33:32.547Z,8.2
2024-04-14T02:35:33.050Z,9.4
2024-04-14T02:37:33.651Z,8.3
2024-04-14T02:39:34.278Z,10.6
2024-04-14T02:41:34.797Z,11.2
2024-04-14T02:43:35.416Z,7.8
2024-04-14T02:45:35.987Z,36.5
2024-04-14T02:47:36.696Z,9.7
2024-04-14T02:49:37.154Z,8.5
2024-04-14T02:51:37.889Z,7.7
2024-04-14T02:53:38.356Z,7.5
2024-04-14T02:55:38.934Z,8.5
2024-04-14T02:57:39.576Z,9.1
2024-04-14T02:59:40.101Z,7
2024-04-14T03:01:40.826Z,17.1
2024-04-14T03:03:41.324Z,11.2
2024-04-14T03:05:41.832Z,6.7
2024-04-14T03:07:42.504Z,7.4
2024-04-14T03:09:43.125Z,9.2
2024-04-14T03:11:43.571Z,7.4
2024-04-14T03:13:44.163Z,6.7
2024-04-14T03:15:44.755Z,11.9
2024-04-14T03:17:45.407Z,5.7
2024-04-14T03:19:45.940Z,7.6
2024-04-14T03:21:46.518Z,9
2024-04-14T03:23:47.009Z,7.8
2024-04-14T03:25:47.618Z,9.5
2024-04-14T03:27:48.183Z,11.5
2024-04-14T03:29:48.782Z,9.3
2024-04-14T03:31:49.392Z,8.9
2024-04-14T03:33:49.960Z,9.1
2024-04-14T03:35:50.516Z,8.6
2024-04-14T03:37:51.094Z,9.3
2024-04-14T03:39:51.638Z,11.7
2024-04-14T03:41:52.279Z,9.5
2024-04-14T03:43:52.787Z,9
2024-04-14T03:45:53.649Z,6.7
2024-04-14T03:47:54.003Z,11.3
2024-04-14T03:49:54.544Z,9.8
2024-04-14T03:51:55.182Z,8.7
2024-04-14T03:53:55.629Z,10.5
2024-04-14T03:55:56.246Z,11
2024-04-14T03:57:56.864Z,9.6
2024-04-14T03:59:57.376Z,10.8
2024-04-14T04:00:45.073Z,10.8
2024-04-14T04:01:25.069Z,10.8
2024-04-14T04:02:05.053Z,14.2
2024-04-14T04:03:58.523Z,10.7
2024-04-14T04:05:59.079Z,8.6
2024-04-14T04:07:59.634Z,10.6
2024-04-14T04:10:00.391Z,14.6
2024-04-14T04:12:00.898Z,10.4
2024-04-14T04:14:01.394Z,9.3
2024-04-14T04:16:01.948Z,13.9
2024-04-14T04:18:02.618Z,15
2024-04-14T04:20:03.282Z,15.3
2024-04-14T04:22:03.696Z,18.9
2024-04-14T04:24:04.233Z,12.1
2024-04-14T04:26:04.867Z,16.7
2024-04-14T04:28:05.421Z,13.9
2024-04-14T04:30:05.905Z,11.7
2024-04-14T04:32:06.548Z,15.8
2024-04-14T04:34:07.132Z,19.1
2024-04-14T04:36:07.624Z,26.3
2024-04-14T04:38:08.238Z,28.2
2024-04-14T04:40:08.765Z,25.2
2024-04-14T04:42:09.466Z,25.3
2024-04-14T04:44:09.901Z,22.9
2024-04-14T04:46:10.506Z,29.6
2024-04-14T04:48:11.128Z,26.9
2024-04-14T04:50:11.601Z,27.8
2024-04-14T04:52:12.213Z,24.7
2024-04-14T04:54:12.759Z,29.3
2024-04-14T04:56:13.426Z,25.1
2024-04-14T04:58:13.904Z,22.7
2024-04-14T05:00:14.517Z,19.8
2024-04-14T05:02:15.074Z,19.6
2024-04-14T05:04:15.657Z,17.1
2024-04-14T05:06:16.238Z,22.1
2024-04-14T05:08:16.781Z,17.2
2024-04-14T05:10:17.352Z,19.2
2024-04-14T05:12:17.895Z,20.2
2024-04-14T05:14:18.515Z,26.4
2024-04-14T05:16:19.064Z,27.7
2024-04-14T05:18:19.776Z,31.1
2024-04-14T05:20:20.258Z,32.6
2024-04-14T05:22:20.803Z,28.2
2024-04-14T05:24:21.369Z,24.9
2024-04-14T05:26:21.986Z,28.1
2024-04-14T05:28:22.535Z,20
2024-04-14T05:30:23.064Z,16.6
2024-04-14T05:32:23.766Z,14.8
2024-04-14T05:34:24.228Z,15.5
2024-04-14T05:36:24.823Z,15.6
2024-04-14T05:38:25.311Z,15.1
2024-04-14T05:40:25.936Z,9.9
2024-04-14T05:42:26.485Z,13.4
2024-04-14T05:44:27.091Z,9.6
2024-04-14T05:46:27.669Z,9.7
2024-04-14T05:48:28.300Z,11.5
2024-04-14T05:50:28.763Z,11.7
2024-04-14T05:52:29.318Z,9.7
2024-04-14T05:54:30.050Z,10.2
2024-04-14T05:56:30.537Z,9.1
2024-04-14T05:58:31.106Z,13.3
2024-04-14T06:00:31.724Z,13.1
2024-04-14T06:02:32.296Z,13.2
2024-04-14T06:04:32.972Z,16.3
2024-04-14T06:06:33.450Z,11.9
2024-04-14T06:08:33.944Z,12.9
2024-04-14T06:10:34.689Z,10.7
2024-04-14T06:12:35.228Z,14.3
2024-04-14T06:14:35.714Z,10
2024-04-14T06:16:36.318Z,10.1
2024-04-14T06:18:36.914Z,11.3
2024-04-14T06:20:37.456Z,11.4
2024-04-14T06:22:37.993Z,12.6
2024-04-14T06:24:38.603Z,11.1
2024-04-14T06:26:39.164Z,11.3
2024-04-14T06:28:39.717Z,13
2024-04-14T06:30:40.346Z,14.4
2024-04-14T06:32:41.031Z,10.3
2024-04-14T06:34:41.466Z,12.5
2024-04-14T06:36:42.156Z,10.9
2024-04-14T06:38:42.701Z,14.8
2024-04-14T06:40:43.207Z,10.8
2024-04-14T06:42:43.818Z,16.1
2024-04-14T06:44:44.411Z,11.5
2024-04-14T06:46:44.977Z,9.7
2024-04-14T06:48:45.628Z,10.2
2024-04-14T06:50:46.157Z,11.9
2024-04-14T06:52:46.716Z,9.4
2024-04-14T06:54:47.291Z,11.7
2024-04-14T06:56:47.869Z,9.1
2024-04-14T06:58:48.431Z,11.1
2024-04-14T07:00:49.123Z,12.2
2024-04-14T07:02:49.684Z,7
2024-04-14T07:04:50.212Z,7.6
2024-04-14T07:06:50.807Z,9.7
2024-04-14T07:08:51.338Z,11
2024-04-14T07:10:51.895Z,10
2024-04-14T07:12:52.501Z,10.6
2024-04-14T07:14:53.017Z,10.1
2024-04-14T07:16:53.690Z,10.1
2024-04-14T07:18:54.215Z,8.9
2024-04-14T07:20:54.756Z,9.3
2024-04-14T07:22:55.343Z,9.1
2024-04-14T07:24:56.014Z,13
2024-04-14T07:26:56.467Z,12.9
2024-04-14T07:28:57.175Z,10.6
2024-04-14T07:30:57.749Z,8.9
2024-04-14T07:32:58.358Z,8.5
2024-04-14T07:34:58.912Z,9.7
2024-04-14T07:36:59.583Z,8.2
2024-04-14T07:39:00.079Z,7.6
2024-04-14T07:41:00.797Z,8.5
2024-04-14T07:43:01.260Z,10.8
2024-04-14T07:45:01.859Z,14.7
2024-04-14T07:47:02.369Z,7.5
2024-04-14T07:49:03.095Z,7.4
2024-04-14T07:51:03.528Z,9
2024-04-14T07:53:04.144Z,7.3
2024-04-14T07:55:04.713Z,6.8
2024-04-14T07:57:05.298Z,6
2024-04-14T07:59:05.833Z,8.1
2024-04-14T08:01:06.565Z,7.1
2024-04-14T08:03:07.147Z,9.3
2024-04-14T08:05:07.605Z,7.1
2024-04-14T08:07:08.145Z,9.7
2024-04-14T08:09:08.682Z,6.4
2024-04-14T08:11:09.279Z,8.7
2024-04-14T08:13:09.981Z,9
2024-04-14T08:15:10.455Z,5.6
2024-04-14T08:17:11.054Z,5.7
2024-04-14T08:19:11.644Z,7.2
2024-04-14T08:21:12.220Z,7.7
2024-04-14T08:23:12.779Z,10.6
2024-04-14T08:25:13.438Z,12.6
2024-04-14T08:27:13.906Z,5.4
2024-04-14T08:29:14.539Z,9.1
2024-04-14T08:31:15.101Z,6.4
2024-04-14T08:33:15.669Z,6.4
2024-04-14T08:35:16.212Z,5.2
2024-04-14T08:37:19.565Z,8.4
2024-04-14T08:39:17.402Z,8.1
2024-04-14T08:41:18.018Z,9.7
2024-04-14T08:43:18.541Z,11.2
2024-04-14T08:45:19.137Z,7.5
2024-04-14T08:47:19.689Z,10.7
2024-04-14T08:49:20.356Z,10.1
2024-04-14T08:51:20.869Z,5.6
2024-04-14T08:53:21.480Z,8.1
2024-04-14T08:55:22.020Z,6.1
2024-04-14T08:57:22.596Z,6.9
2024-04-14T08:59:25.037Z,11.6
2024-04-14T09:01:23.870Z,7.5
2024-04-14T09:03:24.340Z,6.4
2024-04-14T09:05:24.941Z,8.7
2024-04-14T09:07:25.480Z,6.7
2024-04-14T09:09:26.062Z,8.7
2024-04-14T09:11:26.749Z,7.3
2024-04-14T09:13:27.237Z,10.8
2024-04-14T09:15:27.931Z,9.7
2024-04-14T09:17:28.481Z,7
2024-04-14T09:19:28.991Z,7.3
2024-04-14T09:21:29.926Z,6.6
2024-04-14T09:23:30.168Z,8.2
2024-04-14T09:25:30.701Z,15
2024-04-14T09:27:31.405Z,8.3
2024-04-14T09:29:31.954Z,6
2024-04-14T09:31:32.511Z,5.7
2024-04-14T09:33:33.226Z,7.2
2024-04-14T09:35:33.634Z,6
2024-04-14T09:37:34.270Z,7.8
2024-04-14T09:39:34.873Z,5.8
2024-04-14T09:41:35.425Z,6.5
2024-04-14T09:43:35.953Z,11.2
2024-04-14T09:45:36.568Z,7.5
2024-04-14T09:47:37.259Z,6.9
2024-04-14T09:49:37.748Z,10.2
2024-04-14T09:51:38.365Z,7.7
2024-04-14T09:53:38.919Z,5.8
2024-04-14T09:55:41.054Z,5.5
2024-04-14T09:57:40.045Z,5.3
2024-04-14T09:59:40.683Z,3.8
2024-04-14T10:01:41.312Z,6.1
2024-04-14T10:03:41.931Z,5.4
2024-04-14T10:05:42.366Z,5
2024-04-14T10:07:42.984Z,4.2
2024-04-14T10:09:43.644Z,13.2
2024-04-14T10:11:44.104Z,6.3
2024-04-14T10:13:44.774Z,7
2024-04-14T10:15:45.347Z,5
2024-04-14T10:17:45.888Z,7.6
2024-04-14T10:19:46.553Z,9
2024-04-14T10:21:47.174Z,5.6
2024-04-14T10:23:47.683Z,9.4
2024-04-14T10:25:48.299Z,9
2024-04-14T10:27:48.903Z,6
2024-04-14T10:29:49.434Z,10.9
2024-04-14T10:31:50.117Z,8.2
2024-04-14T10:33:50.690Z,4.3
2024-04-14T10:35:51.284Z,6.9
2024-04-14T10:37:51.782Z,7
2024-04-14T10:39:52.429Z,7.1
2024-04-14T10:41:52.998Z,5.4
2024-04-14T10:43:53.585Z,7.1
2024-04-14T10:45:54.175Z,4.7
2024-04-14T10:47:54.782Z,6.8
2024-04-14T10:49:55.340Z,8.4
2024-04-14T10:51:55.894Z,5.3
2024-04-14T10:53:56.481Z,5.5
2024-04-14T10:55:57.045Z,6.6
2024-04-14T10:57:57.682Z,14.5
2024-04-14T10:59:58.215Z,5.5
2024-04-14T11:01:58.765Z,5.5
2024-04-14T11:03:59.462Z,6.4
2024-04-14T11:05:59.982Z,4.5
2024-04-14T11:08:00.546Z,4.2
2024-04-14T11:10:01.275Z,6.1
2024-04-14T11:12:01.792Z,4.5
2024-04-14T11:14:02.345Z,5.1
2024-04-14T11:16:03.134Z,7.5
2024-04-14T11:18:03.579Z,6.7
2024-04-14T11:20:04.102Z,4
2024-04-14T11:22:04.798Z,5.5
2024-04-14T11:24:05.298Z,5.9
2024-04-14T11:26:05.935Z,3.1
2024-04-14T11:28:06.549Z,4.7
2024-04-14T11:30:07.083Z,4.7
2024-04-14T11:32:07.710Z,5.9
2024-04-14T11:34:12.064Z,4.6
2024-04-14T11:36:08.861Z,7.2
2024-04-14T11:38:09.495Z,5.8
2024-04-14T11:40:12.022Z,8.3
2024-04-14T11:42:10.621Z,7.6
2024-04-14T11:44:11.272Z,6.7
2024-04-14T11:46:12.027Z,6.2
2024-04-14T11:48:12.521Z,3.4
2024-04-14T11:50:12.996Z,7.7
2024-04-14T11:52:13.668Z,4.5
2024-04-14T11:54:14.218Z,8.4
2024-04-14T11:56:14.775Z,8
2024-04-14T11:58:15.367Z,3.7
2024-04-14T12:00:16.035Z,7.2
2024-04-14T12:02:16.545Z,4.1
2024-04-14T12:04:17.214Z,4.4
2024-04-14T12:06:17.748Z,4.4
2024-04-14T12:08:18.366Z,5.8
2024-04-14T12:10:18.940Z,5.8
2024-04-14T12:12:19.554Z,4.5
2024-04-14T12:14:20.158Z,5.3
2024-04-14T12:16:20.839Z,5.2
2024-04-14T12:18:21.336Z,4.5
2024-04-14T12:20:21.975Z,3.5
2024-04-14T12:22:22.566Z,4
2024-04-14T12:24:23.133Z,4.2
2024-04-14T12:26:23.738Z,5
2024-04-14T12:28:24.486Z,5.5
2024-04-14T12:30:35.578Z,5.1
2024-04-14T12:32:25.576Z,7.3
2024-04-14T12:34:26.105Z,5.2
2024-04-14T12:36:26.705Z,4.6
2024-04-14T12:38:27.331Z,7.6
2024-04-14T12:40:27.948Z,7
2024-04-14T12:42:28.488Z,7.1
2024-04-14T12:44:29.094Z,3.6
2024-04-14T12:46:29.761Z,3.5
2024-04-14T12:48:30.298Z,4
2024-04-14T12:52:31.386Z,6
2024-04-14T12:54:31.981Z,7.7
2024-04-14T12:56:32.581Z,5.3
2024-04-14T12:58:33.148Z,6
2024-04-14T13:00:33.808Z,4
2024-04-14T13:02:34.321Z,4
2024-04-14T13:04:34.907Z,5
2024-04-14T13:06:35.441Z,4.5
2024-04-14T13:08:36.002Z,4.6
2024-04-14T13:10:36.578Z,4.5
2024-04-14T13:12:37.198Z,4.7
2024-04-14T13:14:37.824Z,6.4
2024-04-14T13:16:38.366Z,4.9
2024-04-14T13:18:38.931Z,5.3
2024-04-14T13:20:39.504Z,5.8
2024-04-14T13:22:40.090Z,6.4
2024-04-14T13:24:40.733Z,4.4
2024-04-14T13:26:41.264Z,5.3
2024-04-14T13:28:41.926Z,5.5
2024-04-14T13:30:42.437Z,6.8
2024-04-14T13:32:43.123Z,5.3
2024-04-14T13:34:43.623Z,5.6
2024-04-14T13:36:44.255Z,7.4
2024-04-14T13:38:44.831Z,5.9
2024-04-14T13:40:45.352Z,3.3
2024-04-14T13:42:46.068Z,6.1
2024-04-14T13:44:46.529Z,11.1
2024-04-14T13:46:47.173Z,4.4
2024-04-14T13:48:47.755Z,4.9
2024-04-14T13:50:48.281Z,4.6
2024-04-14T13:52:48.909Z,4.5
2024-04-14T13:54:49.488Z,6.2
2024-04-14T13:56:50.084Z,5.4
2024-04-14T13:58:50.622Z,4.7
2024-04-14T14:00:51.320Z,4.3
2024-04-14T14:02:51.823Z,4
2024-04-14T14:04:52.441Z,5.3
2024-04-14T14:06:52.956Z,4.4
2024-04-14T14:08:53.543Z,3.8
2024-04-14T14:10:54.127Z,6
2024-04-14T14:12:54.711Z,7
2024-04-14T14:14:55.234Z,4.5
2024-04-14T14:16:55.887Z,3.6
2024-04-14T14:18:56.429Z,6.3
2024-04-14T14:20:56.975Z,4.6
2024-04-14T14:22:57.587Z,3.3
2024-04-14T14:24:58.251Z,4.7
2024-04-14T14:26:58.764Z,4.7
2024-04-14T14:28:59.331Z,4.4
2024-04-14T14:30:59.928Z,5.3
2024-04-14T14:33:00.603Z,4.7
2024-04-14T14:35:01.141Z,3.4
2024-04-14T14:37:01.796Z,3.5
2024-04-14T14:39:02.269Z,4.9
2024-04-14T14:41:02.872Z,3
2024-04-14T14:43:03.460Z,5.9
2024-04-14T14:45:04.036Z,4.8
2024-04-14T14:47:04.585Z,5.5
2024-04-14T14:49:05.288Z,4.6
2024-04-14T14:51:05.828Z,4.9
2024-04-14T14:53:06.336Z,6.3
2024-04-14T14:55:07.159Z,5.8
2024-04-14T14:57:07.495Z,3.8
2024-04-14T14:59:08.119Z,4.7
2024-04-14T15:01:08.730Z,4.7
2024-04-14T15:03:09.310Z,6
2024-04-14T15:05:09.969Z,4.4
2024-04-14T15:07:10.489Z,8.4
2024-04-14T15:09:11.051Z,4.8
2024-04-14T15:11:11.645Z,39.7
2024-04-14T15:13:12.256Z,19.6
2024-04-14T15:15:12.790Z,17.4
2024-04-14T15:17:13.393Z,5.8
2024-04-14T15:19:14.143Z,50.7
2024-04-14T15:21:14.531Z,10.4
2024-04-14T15:23:15.152Z,10.7
2024-04-14T15:25:15.824Z,9.9
2024-04-14T15:27:16.401Z,5.6
2024-04-14T15:29:16.963Z,28.4
2024-04-14T15:31:17.664Z,15.1
2024-04-14T15:33:18.174Z,13.1
2024-04-14T15:35:18.801Z,17.4
2024-04-14T15:37:19.405Z,22.9
2024-04-14T15:39:20.136Z,23
2024-04-14T15:41:21.755Z,19.6
2024-04-14T15:43:21.229Z,26.6
2024-04-14T15:45:21.844Z,6.3
2024-04-14T15:47:22.627Z,15
2024-04-14T15:49:22.988Z,7.6
2024-04-14T15:51:23.642Z,9.8
2024-04-14T15:53:24.186Z,11.4
2024-04-14T15:55:24.785Z,18.9
2024-04-14T15:57:31.364Z,6.8
2024-04-14T15:59:26.074Z,9
2024-04-14T16:01:26.687Z,12.5
2024-04-14T16:03:27.255Z,7.9
2024-04-14T16:05:27.835Z,3.8
2024-04-14T16:07:28.497Z,3.8
2024-04-14T16:09:29.140Z,6.4
2024-04-14T16:11:29.801Z,4.7
2024-04-14T16:13:30.260Z,5.2
2024-04-14T16:15:30.926Z,9.1
2024-04-14T16:17:31.579Z,5.1
2024-04-14T16:19:32.156Z,7.1
2024-04-14T16:21:32.731Z,9.3
2024-04-14T16:23:33.499Z,7.1
2024-04-14T16:25:34.768Z,5.9
2024-04-14T16:27:34.821Z,4.2
2024-04-14T16:29:35.179Z,6.7
2024-04-14T16:31:35.747Z,5.4
2024-04-14T16:33:36.422Z,8.7
2024-04-14T16:35:36.948Z,14.6
2024-04-14T16:37:37.578Z,8.6
2024-04-14T16:39:38.385Z,8.2
2024-04-14T16:41:38.885Z,9.7
2024-04-14T16:43:39.371Z,10.8
2024-04-14T16:45:39.935Z,10
2024-04-14T16:47:40.634Z,7.8
2024-04-14T16:49:41.484Z,10.6
2024-04-14T16:51:41.762Z,11.6
2024-04-14T16:53:42.376Z,6.8
2024-04-14T16:55:42.961Z,11.3
2024-04-14T16:57:43.624Z,13.8
2024-04-14T16:59:44.180Z,7.4
2024-04-14T17:01:44.967Z,13.6
2024-04-14T17:03:45.545Z,12.2
2024-04-14T17:05:45.969Z,15.6
2024-04-14T17:07:46.519Z,16.8
2024-04-14T17:09:47.162Z,17.4
2024-04-14T17:11:47.690Z,15.2
2024-04-14T17:13:48.327Z,15
2024-04-14T17:15:48.958Z,11.8
2024-04-14T17:17:49.446Z,47.8
2024-04-14T17:19:50.039Z,30
2024-04-14T17:21:50.620Z,22.7
2024-04-14T17:23:51.233Z,23.9
2024-04-14T17:25:51.788Z,23
2024-04-14T17:27:52.378Z,18.6
2024-04-14T17:29:52.919Z,16.3
2024-04-14T17:31:53.522Z,10.9
2024-04-14T17:33:54.197Z,15.1
2024-04-14T17:35:54.674Z,11.4
2024-04-14T17:37:55.214Z,15.9
2024-04-14T17:39:55.925Z,15.2
2024-04-14T17:41:56.439Z,10
2024-04-14T17:43:56.989Z,15.3
2024-04-14T17:45:57.721Z,15.3
2024-04-14T17:47:58.171Z,13.9
2024-04-14T17:49:58.801Z,11.5
2024-04-14T17:51:59.408Z,15.5
2024-04-14T17:53:59.983Z,22.5
2024-04-14T17:56:00.463Z,13.3
2024-04-14T17:58:01.108Z,18.5
2024-04-14T18:00:01.750Z,18.1
2024-04-14T18:02:02.259Z,17.9
2024-04-14T18:04:02.909Z,41.9
2024-04-14T18:06:03.386Z,45.5
2024-04-14T18:08:04.001Z,42.7
2024-04-14T18:10:04.635Z,34.5
2024-04-14T18:12:05.146Z,39.6
2024-04-14T18:14:05.791Z,62.2
2024-04-14T18:16:06.578Z,79.5
2024-04-14T18:18:06.959Z,96.5
2024-04-14T18:20:07.902Z,70.2
2024-04-14T18:22:08.168Z,64.6
2024-04-14T18:24:08.656Z,58.2
2024-04-14T18:26:09.278Z,70.5
2024-04-14T18:28:09.890Z,87.7
2024-04-14T18:30:10.391Z,87.1
2024-04-14T18:32:11.031Z,81.8
2024-04-14T18:34:11.684Z,74.2
2024-04-14T18:36:18.494Z,65.8
2024-04-14T18:38:12.833Z,57.9
2024-04-14T18:40:13.466Z,55.3
2024-04-14T18:42:13.997Z,46.4
2024-04-14T18:44:14.522Z,52.8
2024-04-14T18:46:15.235Z,48.6
2024-04-14T18:48:15.765Z,46.9
2024-04-14T18:50:16.323Z,40.9
2024-04-14T18:52:16.985Z,34.6
2024-04-14T18:54:17.475Z,39.4
2024-04-14T18:56:18.099Z,44
2024-04-14T18:58:18.615Z,50
2024-04-14T19:00:19.249Z,43.9
2024-04-14T19:02:19.885Z,32.2
2024-04-14T19:04:20.406Z,27.6
2024-04-14T19:06:21.033Z,24
2024-04-14T19:08:21.557Z,26.4
2024-04-14T19:10:22.192Z,28.7
2024-04-14T19:12:22.825Z,19.1
2024-04-14T19:14:23.327Z,24.8
2024-04-14T19:16:23.918Z,15.2
2024-04-14T19:18:24.537Z,18.5
2024-04-14T19:20:25.106Z,16.1
2024-04-14T19:22:25.723Z,19.5
2024-04-14T19:24:26.272Z,18.7
2024-04-14T19:26:26.903Z,24.4
2024-04-14T19:28:27.482Z,15.3
2024-04-14T19:30:28.108Z,21.7
2024-04-14T19:32:28.747Z,18.2
2024-04-14T19:34:29.245Z,22.9
2024-04-14T19:36:29.812Z,15.8
2024-04-14T19:38:30.446Z,23
2024-04-14T19:40:31.117Z,20.1
2024-04-14T19:42:31.625Z,18
2024-04-14T19:44:32.267Z,15.3
2024-04-14T19:46:32.921Z,19.3
2024-04-14T19:48:33.504Z,15.1
2024-04-14T19:50:34.060Z,13.4
2024-04-14T19:52:34.674Z,15.7
2024-04-14T19:54:35.239Z,14.1
2024-04-14T19:56:35.850Z,11.5
2024-04-14T19:58:36.451Z,13.4
2024-04-14T20:00:37.145Z,10.8
2024-04-14T20:02:37.665Z,12.4
2024-04-14T20:04:38.244Z,11.8
2024-04-14T20:06:38.824Z,6.2
2024-04-14T20:08:39.422Z,6.8
2024-04-14T20:10:39.976Z,8.5
2024-04-14T20:12:40.622Z,5.4
2024-04-14T20:14:41.176Z,8.9
2024-04-14T20:16:41.783Z,6.4
2024-04-14T20:18:42.537Z,7.3
2024-04-14T20:20:46.063Z,4.6
2024-04-14T20:22:43.630Z,7.2
2024-04-14T20:24:45.292Z,6.4
2024-04-14T20:26:44.844Z,7
2024-04-14T20:28:45.462Z,12.7
2024-04-14T20:30:46.201Z,9.2
2024-04-14T20:32:46.783Z,10.6
2024-04-14T20:34:47.215Z,9
2024-04-14T20:36:47.894Z,9.9
2024-04-14T20:38:48.467Z,6.7
2024-04-14T20:40:49.085Z,8.8
2024-04-14T20:42:49.740Z,6.6
2024-04-14T20:44:50.290Z,7.8
2024-04-14T20:46:50.878Z,6.9
2024-04-14T20:48:51.688Z,5.6
2024-04-14T20:50:52.111Z,5.8
2024-04-14T20:52:52.758Z,4.5
2024-04-14T20:54:53.451Z,7.9
2024-04-14T20:56:53.930Z,5.8
2024-04-14T20:58:54.547Z,4.8
2024-04-14T21:00:55.240Z,7.3
2024-04-14T21:02:55.748Z,6.9
2024-04-14T21:04:56.351Z,6.8
2024-04-14T21:06:57.083Z,6.3
2024-04-14T21:08:57.573Z,7.9
2024-04-14T21:10:58.174Z,4.7
2024-04-14T21:12:58.754Z,4.6
2024-04-14T21:14:59.346Z,7.5
2024-04-14T21:16:59.980Z,9.3
2024-04-14T21:19:00.694Z,6.2
2024-04-14T21:21:01.210Z,10.7
2024-04-14T21:23:01.871Z,6.7
2024-04-14T21:25:02.573Z,5
2024-04-14T21:27:03.070Z,7.2
2024-04-14T21:29:03.650Z,5.2
2024-04-14T21:31:04.351Z,5.6
2024-04-14T21:33:04.957Z,6.6
2024-04-14T21:35:05.513Z,8.9
2024-04-14T21:37:06.179Z,7
2024-04-14T21:39:06.758Z,6.9
2024-04-14T21:41:07.354Z,6.3
2024-04-14T21:43:08.026Z,6.7
2024-04-14T21:45:08.557Z,11.6
2024-04-14T21:47:09.164Z,4.6
2024-04-14T21:49:09.779Z,4.7
2024-04-14T21:51:10.381Z,5.2
2024-04-14T21:53:13.447Z,5.5
2024-04-14T21:55:11.702Z,5.9
2024-04-14T21:57:12.149Z,5.6
2024-04-14T21:59:12.780Z,5.4
2024-04-14T22:01:13.513Z,4.1
2024-04-14T22:03:13.927Z,5.5
2024-04-14T22:05:14.648Z,10.4
2024-04-14T22:07:15.252Z,6.3
2024-04-14T22:09:15.730Z,5.9
2024-04-14T22:11:16.402Z,7.5
2024-04-14T22:13:17.002Z,7.2
2024-04-14T22:15:17.525Z,4.5
2024-04-14T22:17:18.216Z,5.5
2024-04-14T22:19:18.843Z,5.4
2024-04-14T22:21:19.396Z,4.7
2024-04-14T22:23:20.049Z,11.4
2024-04-14T22:25:20.727Z,23.3
2024-04-14T22:27:21.206Z,8.3
2024-04-14T22:29:21.796Z,4.8
2024-04-14T22:31:22.410Z,5.6
2024-04-14T22:33:23.013Z,5.9
2024-04-14T22:35:23.603Z,7.7
2024-04-14T22:37:24.205Z,6.8
2024-04-14T22:39:24.843Z,5.9
2024-04-14T22:41:25.450Z,5.6
2024-04-14T22:43:26.015Z,4.7
2024-04-14T22:45:26.638Z,8
2024-04-14T22:47:27.242Z,6.4
2024-04-14T22:49:27.883Z,5.9
2024-04-14T22:51:28.427Z,6.9
2024-04-14T22:53:29.012Z,3.9
2024-04-14T22:55:29.655Z,7.2
2024-04-14T22:57:30.256Z,6.2
2024-04-14T22:59:30.848Z,10.3
2024-04-14T23:01:31.576Z,7.4
2024-04-14T23:03:32.122Z,6.8
2024-04-14T23:05:32.625Z,5.7
2024-04-14T23:07:33.256Z,6.2
2024-04-14T23:09:33.841Z,7.5
2024-04-14T23:11:34.391Z,5
2024-04-14T23:13:35.053Z,12.3
2024-04-14T23:15:35.637Z,6.8
2024-04-14T23:17:36.311Z,7.4
2024-04-14T23:19:36.818Z,5.8
2024-04-14T23:21:37.450Z,5.4
2024-04-14T23:23:38.042Z,6
2024-04-14T23:25:38.602Z,8.7
2024-04-14T23:27:39.261Z,6.3
2024-04-14T23:29:39.820Z,6.8
2024-04-14T23:31:40.461Z,6.8
2024-04-14T23:33:41.112Z,6.8
2024-04-14T23:35:41.615Z,7.4
2024-04-14T23:37:42.220Z,5.4
2024-04-14T23:39:42.871Z,6.6
2024-04-14T23:41:43.485Z,6
2024-04-14T23:43:44.021Z,5.3
2024-04-14T23:45:44.695Z,7.2
2024-04-14T23:47:45.341Z,4.1
2024-04-14T23:49:45.953Z,8
2024-04-14T23:51:46.608Z,4.7
2024-04-14T23:53:47.163Z,4.5
2024-04-14T23:55:47.823Z,5.5
2024-04-14T23:57:48.336Z,6.3
2024-04-14T23:59:48.959Z,7.9
